Terminal Aerodrome Forecast
Issued by NWS Knoxville/Tri Cities, TN

Home | Current Version | Previous Version | Text Only | Print | Product List | Glossary On
Versions: 1 2 3 4 5 6 7 8 9 10 11 12 13 14 15 16 17 18 19 20 21 22 23 24 25 26 27 28 29 30 31 32 33 34 35 36 37 38 39 40
000
FTUS44 KMRX 191120
TAFTYS
TAF
KTYS 191120Z 1912/2012 05005KT 5SM -SHRA OVC050
     FM191500 07005KT 3SM -SHRA VCTS OVC050CB
      TEMPO 1915/1918 2SM TSRA OVC035CB
     FM191800 21010G20KT P6SM BKN035
     FM192200 22012KT 3SM -TSRA OVC025CB
     FM200200 23009KT P6SM BKN020
     FM200600 23005KT P6SM OVC015=

USA.gov is the U.S. government's official web portal to all federal, state and local government web resources and services.